createdAt,value
2022-12-18T00:01:21.692Z,35.88
2022-12-18T00:03:48.599Z,33.88
2022-12-18T00:06:16.271Z,38.85
2022-12-18T00:08:44.454Z,36.63
2022-12-18T00:11:17.860Z,37.70
2022-12-18T00:13:45.650Z,40.00
2022-12-18T00:16:14.964Z,36.33
2022-12-18T00:18:42.568Z,34.50
2022-12-18T00:21:11.176Z,35.03
2022-12-18T00:23:39.125Z,41.38
2022-12-18T00:26:27.615Z,41.65
2022-12-18T00:28:54.686Z,31.30
2022-12-18T00:31:24.091Z,35.33
2022-12-18T00:33:55.316Z,45.00
2022-12-18T00:36:26.103Z,45.78
2022-12-18T00:38:53.935Z,41.72
2022-12-18T00:41:38.988Z,34.88
2022-12-18T00:44:08.162Z,35.05
2022-12-18T00:46:34.878Z,33.50
2022-12-18T00:49:01.490Z,32.28
2022-12-18T00:51:28.168Z,34.63
2022-12-18T00:53:54.871Z,35.30
2022-12-18T00:56:21.397Z,34.92
2022-12-18T00:58:48.160Z,33.28
2022-12-18T01:01:15.752Z,36.42
2022-12-18T01:03:42.449Z,33.85
2022-12-18T01:06:11.214Z,34.88
2022-12-18T01:08:40.402Z,32.45
2022-12-18T01:11:12.807Z,28.00
2022-12-18T01:13:40.877Z,33.30
2022-12-18T01:16:07.959Z,31.85
2022-12-18T01:18:34.432Z,33.25
2022-12-18T01:21:00.926Z,33.85
2022-12-18T01:23:27.595Z,30.35
2022-12-18T01:25:54.093Z,30.50
2022-12-18T01:28:20.646Z,31.77
2022-12-18T01:30:47.167Z,32.28
2022-12-18T01:33:13.722Z,30.60
2022-12-18T01:35:44.042Z,30.65
2022-12-18T01:38:10.739Z,30.00
2022-12-18T01:40:37.876Z,29.17
2022-12-18T01:43:04.583Z,28.00
2022-12-18T01:45:32.877Z,27.95
2022-12-18T01:48:09.864Z,28.10
2022-12-18T01:50:40.484Z,25.73
2022-12-18T01:53:18.029Z,26.23
2022-12-18T01:55:49.570Z,26.73
2022-12-18T01:58:17.047Z,29.10
2022-12-18T02:00:44.178Z,26.35
2022-12-18T02:03:12.026Z,25.77
2022-12-18T02:06:08.321Z,28.38
2022-12-18T02:09:03.931Z,29.02
2022-12-18T02:11:57.555Z,27.95
2022-12-18T02:14:56.534Z,28.50
2022-12-18T02:17:57.685Z,27.05
2022-12-18T02:20:34.213Z,27.02
2022-12-18T02:23:19.037Z,28.02
2022-12-18T02:26:03.569Z,26.67
2022-12-18T02:28:34.904Z,29.02
2022-12-18T02:31:05.916Z,28.70
2022-12-18T02:33:35.976Z,29.10
2022-12-18T02:36:03.982Z,29.95
2022-12-18T02:38:32.353Z,29.08
2022-12-18T02:41:00.400Z,29.70
2022-12-18T02:43:26.988Z,30.70
2022-12-18T02:45:57.705Z,30.35
2022-12-18T02:48:31.623Z,30.00
2022-12-18T02:51:10.001Z,29.05
2022-12-18T02:54:08.655Z,29.17
2022-12-18T02:56:52.939Z,29.92
2022-12-18T02:59:29.273Z,29.52
2022-12-18T03:02:17.980Z,28.05
2022-12-18T03:04:55.544Z,27.58
2022-12-18T03:07:36.518Z,27.60
2022-12-18T03:10:04.412Z,28.00
2022-12-18T03:12:38.777Z,26.27
2022-12-18T03:15:18.146Z,28.73
2022-12-18T03:17:57.914Z,29.60
2022-12-18T03:20:28.036Z,28.10
2022-12-18T03:25:27.832Z,27.25
2022-12-18T03:27:58.697Z,28.70
2022-12-18T03:30:29.190Z,27.95
2022-12-18T03:33:10.642Z,28.30
2022-12-18T03:35:41.105Z,28.77
2022-12-18T03:38:08.078Z,30.27
2022-12-18T03:41:12.808Z,30.52
2022-12-18T03:43:57.546Z,30.63
2022-12-18T03:46:55.771Z,27.17
2022-12-18T03:49:45.817Z,29.17
2022-12-18T03:52:31.319Z,27.83
2022-12-18T03:55:00.767Z,28.35
2022-12-18T03:57:30.659Z,27.17
2022-12-18T04:00:01.519Z,29.05
2022-12-18T04:02:29.972Z,27.92
2022-12-18T04:05:00.876Z,26.77
2022-12-18T04:07:28.183Z,26.35
2022-12-18T04:09:57.651Z,27.02
2022-12-18T04:12:29.492Z,26.98
2022-12-18T04:14:56.262Z,26.42
2022-12-18T04:17:23.548Z,24.55
2022-12-18T04:19:50.855Z,27.35
2022-12-18T04:22:17.498Z,26.73
2022-12-18T04:24:44.019Z,28.35
2022-12-18T04:27:10.555Z,26.90
2022-12-18T04:29:37.103Z,26.83
2022-12-18T04:32:03.661Z,27.30
2022-12-18T04:34:30.197Z,25.55
2022-12-18T04:36:57.436Z,24.02
2022-12-18T04:39:24.076Z,24.60
2022-12-18T04:41:51.367Z,24.58
2022-12-18T04:44:17.964Z,24.98
2022-12-18T04:46:44.833Z,25.55
2022-12-18T04:49:11.757Z,26.92
2022-12-18T04:51:38.644Z,27.90
2022-12-18T04:54:05.238Z,27.23
2022-12-18T04:56:32.628Z,27.13
2022-12-18T04:58:59.158Z,27.42
2022-12-18T05:01:30.945Z,26.80
2022-12-18T05:04:00.855Z,24.85
2022-12-18T05:06:27.374Z,25.80
2022-12-18T05:08:53.865Z,23.55
2022-12-18T05:11:20.426Z,22.92
2022-12-18T05:13:47.107Z,24.55
2022-12-18T05:16:15.038Z,24.45
2022-12-18T05:18:41.983Z,25.02
2022-12-18T05:21:08.625Z,26.13
2022-12-18T05:23:35.936Z,24.55
2022-12-18T05:26:05.206Z,24.42
2022-12-18T05:28:34.338Z,23.25
2022-12-18T05:31:03.211Z,23.60
2022-12-18T05:33:32.954Z,22.73
2022-12-18T05:36:03.777Z,22.13
2022-12-18T05:38:32.038Z,23.80
2022-12-18T05:40:59.070Z,23.63
2022-12-18T05:43:26.762Z,23.50
2022-12-18T05:45:54.471Z,21.67
2022-12-18T05:48:22.202Z,23.88
2022-12-18T05:50:50.682Z,22.30
2022-12-18T05:53:19.290Z,23.48
2022-12-18T05:55:46.474Z,23.33
2022-12-18T05:58:15.413Z,23.40
2022-12-18T06:00:45.761Z,21.25
2022-12-18T06:03:13.215Z,24.42
2022-12-18T06:05:42.321Z,24.13
2022-12-18T06:08:09.729Z,25.57
2022-12-18T06:10:36.450Z,25.80
2022-12-18T06:13:03.068Z,23.85
2022-12-18T06:15:29.626Z,26.33
2022-12-18T06:17:56.154Z,25.25
2022-12-18T06:20:23.031Z,25.15
2022-12-18T06:22:49.527Z,25.05
2022-12-18T06:25:16.296Z,28.33
2022-12-18T06:27:43.055Z,26.65
2022-12-18T06:30:10.908Z,27.70
2022-12-18T06:32:37.421Z,28.88
2022-12-18T06:35:04.835Z,28.05
2022-12-18T06:37:32.492Z,24.23
2022-12-18T06:39:58.997Z,26.75
2022-12-18T06:42:26.158Z,25.00
2022-12-18T06:44:52.796Z,24.55
2022-12-18T06:47:19.764Z,25.83
2022-12-18T06:49:46.294Z,25.58
2022-12-18T06:52:12.977Z,24.92
2022-12-18T06:54:39.524Z,30.00
2022-12-18T06:57:06.005Z,24.85
2022-12-18T06:59:32.546Z,23.55
2022-12-18T07:01:59.078Z,23.60
2022-12-18T07:04:41.995Z,22.33
2022-12-18T07:07:08.448Z,20.38
2022-12-18T07:09:35.022Z,24.27
2022-12-18T07:12:08.893Z,23.58
2022-12-18T07:14:35.697Z,22.88
2022-12-18T07:17:02.655Z,23.52
2022-12-18T07:19:30.487Z,23.65
2022-12-18T07:21:57.845Z,22.98
2022-12-18T07:25:00.537Z,22.85
2022-12-18T07:31:23.050Z,24.00
2022-12-18T07:38:36.322Z,23.90
2022-12-18T07:41:03.783Z,18.45
2022-12-18T07:48:05.075Z,19.38
2022-12-18T07:51:00.945Z,20.08
2022-12-18T07:53:30.416Z,17.77
2022-12-18T07:56:26.508Z,19.63
2022-12-18T07:58:54.998Z,18.45
2022-12-18T08:01:30.862Z,26.90
2022-12-18T08:04:13.826Z,23.60
2022-12-18T08:06:43.677Z,22.10
2022-12-18T08:09:26.915Z,20.20
2022-12-18T08:11:53.389Z,19.70
2022-12-18T08:14:19.860Z,21.15
2022-12-18T08:16:46.448Z,20.63
2022-12-18T08:19:52.536Z,20.48
2022-12-18T08:22:19.362Z,21.48
2022-12-18T08:24:46.290Z,19.67
2022-12-18T08:27:28.870Z,21.60
2022-12-18T08:29:56.479Z,21.00
2022-12-18T08:32:23.020Z,18.55
2022-12-18T08:34:49.552Z,20.30
2022-12-18T08:37:16.073Z,20.85
2022-12-18T08:39:42.591Z,20.33
2022-12-18T08:42:27.802Z,20.33
2022-12-18T08:44:54.485Z,20.65
2022-12-18T08:47:21.036Z,21.10
2022-12-18T08:49:47.652Z,19.52
2022-12-18T08:52:14.127Z,20.00
2022-12-18T08:54:40.685Z,21.25
2022-12-18T08:57:07.716Z,22.63
2022-12-18T08:59:34.221Z,21.10
2022-12-18T09:02:00.829Z,21.35
2022-12-18T09:04:27.369Z,21.02
2022-12-18T09:06:57.069Z,23.70
2022-12-18T09:09:23.562Z,20.38
2022-12-18T09:11:50.158Z,21.73
2022-12-18T09:14:16.620Z,23.30
2022-12-18T09:16:43.467Z,22.30
2022-12-18T09:19:14.045Z,23.60
2022-12-18T09:21:46.140Z,20.15
2022-12-18T09:24:15.462Z,22.63
2022-12-18T09:26:43.672Z,22.02
2022-12-18T09:29:13.803Z,23.20
2022-12-18T09:31:41.411Z,21.38
2022-12-18T09:34:08.034Z,22.92
2022-12-18T09:36:34.568Z,21.25
2022-12-18T09:39:05.102Z,19.00
2022-12-18T09:41:37.486Z,22.17
2022-12-18T09:44:14.846Z,22.50
2022-12-18T09:46:46.726Z,22.55
2022-12-18T09:49:17.220Z,20.23
2022-12-18T09:51:53.879Z,21.17
2022-12-18T09:54:31.790Z,22.30
2022-12-18T09:56:58.295Z,27.45
2022-12-18T09:59:31.947Z,20.77
2022-12-18T10:01:58.724Z,19.60
2022-12-18T10:04:31.526Z,20.42
2022-12-18T10:07:09.468Z,20.92
2022-12-18T10:09:58.283Z,22.33
2022-12-18T10:12:43.183Z,20.55
2022-12-18T10:15:17.522Z,20.83
2022-12-18T10:18:02.621Z,22.48
2022-12-18T10:20:51.356Z,19.35
2022-12-18T10:23:27.035Z,22.77
2022-12-18T10:26:11.617Z,19.98
2022-12-18T10:28:40.775Z,20.25
2022-12-18T10:31:15.325Z,19.17
2022-12-18T10:33:42.279Z,19.08
2022-12-18T10:36:08.989Z,20.10
2022-12-18T10:38:35.624Z,21.13
2022-12-18T10:41:12.432Z,19.25
2022-12-18T10:43:40.445Z,20.20
2022-12-18T10:46:09.788Z,19.48
2022-12-18T10:48:48.774Z,17.50
2022-12-18T10:51:24.360Z,20.95
2022-12-18T10:53:58.226Z,19.20
2022-12-18T10:56:27.072Z,21.02
2022-12-18T10:59:14.811Z,21.73
2022-12-18T11:01:58.863Z,20.98
2022-12-18T11:04:30.490Z,19.33
2022-12-18T11:07:09.737Z,14.90
2022-12-18T11:09:41.341Z,15.60
2022-12-18T11:12:13.814Z,20.33
2022-12-18T11:14:47.120Z,14.57
2022-12-18T11:17:32.834Z,15.20
2022-12-18T11:20:02.099Z,14.05
2022-12-18T11:22:30.155Z,14.70
2022-12-18T11:28:02.319Z,14.18
2022-12-18T11:30:38.422Z,19.02
2022-12-18T11:33:21.819Z,13.55
2022-12-18T11:35:54.589Z,15.32
2022-12-18T11:38:26.524Z,13.98
2022-12-18T11:41:01.084Z,13.82
2022-12-18T11:43:34.356Z,13.27
2022-12-18T11:46:16.068Z,13.07
2022-12-18T11:48:59.644Z,12.07
2022-12-18T11:51:35.757Z,12.02
2022-12-18T11:54:11.190Z,16.33
2022-12-18T11:56:50.957Z,13.80
2022-12-18T11:59:24.071Z,12.18
2022-12-18T12:02:12.936Z,10.13
2022-12-18T12:04:51.675Z,9.15
2022-12-18T12:07:32.357Z,10.02
2022-12-18T12:10:04.482Z,12.13
2022-12-18T12:12:52.874Z,11.32
2022-12-18T12:15:36.747Z,10.65
2022-12-18T12:18:18.903Z,11.55
2022-12-18T12:20:45.362Z,10.45
2022-12-18T12:23:37.220Z,10.18
2022-12-18T12:26:46.625Z,11.57
2022-12-18T12:29:31.825Z,12.43
2022-12-18T12:32:11.971Z,9.90
2022-12-18T12:37:38.637Z,12.45
2022-12-18T12:40:26.947Z,11.45
2022-12-18T12:43:16.440Z,13.68
2022-12-18T12:45:56.790Z,12.98
2022-12-18T12:48:36.677Z,14.07
2022-12-18T12:51:11.271Z,12.18
2022-12-18T12:53:40.556Z,11.90
2022-12-18T12:56:10.843Z,14.02
2022-12-18T12:58:42.731Z,12.57
2022-12-18T13:01:40.539Z,12.30
2022-12-18T13:04:22.915Z,14.27
2022-12-18T13:07:06.316Z,16.50
2022-12-18T13:09:34.991Z,14.70
2022-12-18T13:15:25.349Z,15.38
2022-12-18T13:18:10.942Z,13.07
2022-12-18T13:20:50.766Z,14.93
2022-12-18T13:23:26.642Z,13.82
2022-12-18T13:25:54.573Z,13.82
2022-12-18T13:28:49.086Z,14.68
2022-12-18T13:31:41.773Z,17.13
2022-12-18T13:34:28.089Z,17.40
2022-12-18T13:36:58.373Z,17.08
2022-12-18T13:39:35.135Z,14.25
2022-12-18T13:42:08.610Z,19.67
2022-12-18T13:44:42.259Z,19.05
2022-12-18T13:47:32.416Z,16.02
2022-12-18T13:50:00.043Z,16.40
2022-12-18T13:52:29.768Z,17.92
2022-12-18T13:54:58.726Z,18.73
2022-12-18T13:57:29.669Z,16.63
2022-12-18T13:59:57.240Z,17.95
2022-12-18T14:02:27.271Z,17.20
2022-12-18T14:07:27.472Z,17.88
2022-12-18T14:13:03.108Z,19.55
2022-12-18T14:15:30.014Z,18.23
2022-12-18T14:18:12.590Z,18.75
2022-12-18T14:20:46.530Z,18.52
2022-12-18T14:23:29.350Z,19.33
2022-12-18T14:25:58.573Z,21.05
2022-12-18T14:28:27.907Z,18.67
2022-12-18T14:30:55.769Z,19.83
2022-12-18T14:33:27.539Z,28.17
2022-12-18T14:36:02.737Z,23.52
2022-12-18T14:38:33.609Z,29.65
2022-12-18T14:41:18.078Z,28.42
2022-12-18T14:43:48.390Z,25.58
2022-12-18T14:46:30.141Z,26.30
2022-12-18T14:48:58.050Z,29.60
2022-12-18T14:51:27.108Z,23.55
2022-12-18T14:54:02.002Z,23.20
2022-12-18T14:56:44.290Z,23.15
2022-12-18T14:59:24.645Z,24.63
2022-12-18T15:02:10.212Z,24.85
2022-12-18T15:04:43.003Z,26.58
2022-12-18T15:07:18.743Z,23.45
2022-12-18T15:10:12.927Z,23.00
2022-12-18T15:13:09.251Z,21.88
2022-12-18T15:15:38.516Z,23.02
2022-12-18T15:18:14.003Z,22.75
2022-12-18T15:20:48.723Z,19.77
2022-12-18T15:23:24.251Z,22.27
2022-12-18T15:26:12.885Z,22.42
2022-12-18T15:28:46.759Z,21.27
2022-12-18T15:31:13.320Z,21.60
2022-12-18T15:33:51.408Z,23.90
2022-12-18T15:36:26.578Z,22.42
2022-12-18T15:38:56.050Z,22.23
2022-12-18T15:41:28.021Z,24.35
2022-12-18T15:43:54.757Z,21.75
2022-12-18T15:46:23.751Z,19.73
2022-12-18T15:49:01.402Z,21.23
2022-12-18T15:51:32.248Z,21.38
2022-12-18T15:54:02.046Z,22.67
2022-12-18T15:56:47.519Z,22.80
2022-12-18T15:59:17.112Z,22.25
2022-12-18T16:01:47.084Z,22.30
2022-12-18T16:04:16.545Z,22.63
2022-12-18T16:07:12.709Z,23.55
2022-12-18T16:09:30.179Z,22.67
2022-12-18T16:11:56.727Z,26.88
2022-12-18T16:14:29.434Z,24.52
2022-12-18T16:17:01.290Z,24.98
2022-12-18T16:19:28.342Z,23.08
2022-12-18T16:21:56.484Z,26.27
2022-12-18T16:24:25.514Z,23.58
2022-12-18T16:26:52.994Z,25.57
2022-12-18T16:29:20.437Z,23.88
2022-12-18T16:31:46.917Z,26.23
2022-12-18T16:34:19.209Z,24.38
2022-12-18T16:36:45.732Z,26.00
2022-12-18T16:39:12.242Z,27.08
2022-12-18T16:41:38.768Z,23.67
2022-12-18T16:44:05.407Z,22.63
2022-12-18T16:46:32.034Z,23.63
2022-12-18T16:49:00.387Z,26.25
2022-12-18T16:51:27.944Z,25.60
2022-12-18T16:53:55.269Z,26.45
2022-12-18T16:56:22.308Z,31.17
2022-12-18T16:58:56.966Z,42.45
2022-12-18T17:01:25.512Z,44.67
2022-12-18T17:03:58.070Z,45.28
2022-12-18T17:06:26.000Z,36.10
2022-12-18T17:09:16.419Z,28.52
2022-12-18T17:11:43.414Z,36.25
2022-12-18T17:14:21.306Z,41.53
2022-12-18T17:16:57.775Z,29.70
2022-12-18T17:19:34.961Z,27.70
2022-12-18T17:22:01.711Z,25.75
2022-12-18T17:24:33.054Z,22.02
2022-12-18T17:27:01.574Z,26.13
2022-12-18T17:29:28.099Z,23.45
2022-12-18T17:31:54.604Z,22.85
2022-12-18T17:34:23.342Z,23.05
2022-12-18T17:36:50.141Z,22.67
2022-12-18T17:39:20.186Z,24.30
2022-12-18T17:41:47.812Z,22.80
2022-12-18T17:44:14.867Z,22.08
2022-12-18T17:46:41.573Z,20.88
2022-12-18T17:49:08.473Z,21.65
2022-12-18T17:51:35.046Z,21.40
2022-12-18T17:54:01.547Z,22.50
2022-12-18T17:56:28.202Z,21.52
2022-12-18T17:58:55.427Z,21.13
2022-12-18T18:01:25.175Z,21.33
2022-12-18T18:03:54.274Z,18.92
2022-12-18T18:06:21.394Z,22.13
2022-12-18T18:08:48.267Z,22.23
2022-12-18T18:11:35.800Z,21.23
2022-12-18T18:14:05.224Z,22.08
2022-12-18T18:16:41.001Z,21.90
2022-12-18T18:19:10.937Z,20.48
2022-12-18T18:24:10.203Z,20.60
2022-12-18T18:26:37.177Z,22.98
2022-12-18T18:29:06.366Z,26.80
2022-12-18T18:31:40.771Z,22.10
2022-12-18T18:34:08.792Z,24.60
2022-12-18T18:36:35.518Z,23.67
2022-12-18T18:39:02.432Z,23.35
2022-12-18T18:41:30.573Z,24.55
2022-12-18T18:43:58.436Z,30.98
2022-12-18T18:46:25.667Z,35.85
2022-12-18T18:48:52.325Z,33.80
2022-12-18T18:51:21.527Z,32.25
2022-12-18T18:53:50.415Z,33.22
2022-12-18T18:56:50.187Z,37.35
2022-12-18T18:59:06.298Z,30.08
2022-12-18T19:01:33.205Z,29.65
2022-12-18T19:04:00.822Z,33.97
2022-12-18T19:06:28.400Z,45.20
2022-12-18T19:08:57.093Z,51.33
2022-12-18T19:11:44.003Z,49.95
2022-12-18T19:14:12.658Z,35.70
2022-12-18T19:16:39.425Z,36.78
2022-12-18T19:19:06.818Z,31.30
2022-12-18T19:21:34.179Z,28.60
2022-12-18T19:24:02.681Z,25.73
2022-12-18T19:26:29.503Z,27.50
2022-12-18T19:29:04.518Z,28.40
2022-12-18T19:31:35.705Z,25.15
2022-12-18T19:34:03.834Z,26.17
2022-12-18T19:36:34.345Z,23.85
2022-12-18T19:39:01.751Z,26.30
2022-12-18T19:41:31.404Z,25.60
2022-12-18T19:43:59.755Z,24.38
2022-12-18T19:46:26.499Z,25.70
2022-12-18T19:48:53.677Z,26.48
2022-12-18T19:51:22.520Z,26.13
2022-12-18T19:53:53.570Z,25.50
2022-12-18T19:56:25.784Z,25.15
2022-12-18T19:58:53.152Z,26.02
2022-12-18T20:01:21.678Z,25.58
2022-12-18T20:03:52.784Z,31.77
2022-12-18T20:06:28.717Z,27.15
2022-12-18T20:09:00.296Z,25.25
2022-12-18T20:11:31.001Z,24.90
2022-12-18T20:13:58.485Z,26.48
2022-12-18T20:16:25.125Z,26.85
2022-12-18T20:20:45.906Z,26.13
2022-12-18T20:21:38.886Z,24.38
2022-12-18T20:24:06.954Z,27.80
2022-12-18T20:26:33.502Z,27.20
2022-12-18T20:29:00.117Z,29.35
2022-12-18T20:31:26.770Z,26.35
2022-12-18T20:33:57.664Z,26.92
2022-12-18T20:36:28.192Z,27.83
2022-12-18T20:38:58.151Z,29.95
2022-12-18T20:41:27.713Z,28.33
2022-12-18T20:44:04.820Z,25.23
2022-12-18T20:46:31.306Z,25.45
2022-12-18T20:48:57.904Z,25.35
2022-12-18T20:51:24.699Z,26.88
2022-12-18T20:53:53.002Z,27.05
2022-12-18T20:56:21.951Z,28.63
2022-12-18T20:58:50.218Z,27.80
2022-12-18T21:01:20.585Z,21.00
2022-12-18T21:03:48.237Z,26.35
2022-12-18T21:06:17.510Z,25.48
2022-12-18T21:08:44.256Z,26.90
2022-12-18T21:11:50.866Z,26.45
2022-12-18T21:14:23.192Z,30.83
2022-12-18T21:16:50.682Z,30.80
2022-12-18T21:19:21.277Z,27.77
2022-12-18T21:21:47.873Z,27.13
2022-12-18T21:24:15.079Z,27.88
2022-12-18T21:26:45.741Z,25.88
2022-12-18T21:29:21.415Z,28.17
2022-12-18T21:31:48.322Z,28.38
2022-12-18T21:34:18.075Z,27.05
2022-12-18T21:36:45.044Z,28.00
2022-12-18T21:39:13.517Z,26.35
2022-12-18T21:41:58.451Z,27.48
2022-12-18T21:44:25.167Z,28.42
2022-12-18T21:46:56.926Z,25.67
2022-12-18T21:49:28.144Z,26.92
2022-12-18T21:51:57.130Z,36.28
2022-12-18T21:54:25.393Z,36.90
2022-12-18T21:57:00.162Z,33.10
2022-12-18T21:59:33.059Z,33.65
2022-12-18T22:02:02.303Z,37.40
2022-12-18T22:04:29.363Z,33.30
2022-12-18T22:06:56.569Z,29.65
2022-12-18T22:09:24.947Z,26.27
2022-12-18T22:11:52.659Z,29.60
2022-12-18T22:14:20.300Z,29.98
2022-12-18T22:16:47.788Z,37.13
2022-12-18T22:19:15.365Z,49.03
2022-12-18T22:21:47.164Z,37.10
2022-12-18T22:24:15.359Z,31.73
2022-12-18T22:26:42.714Z,29.08
2022-12-18T22:29:33.500Z,30.98
2022-12-18T22:32:01.160Z,25.55
2022-12-18T22:34:27.989Z,23.67
2022-12-18T22:36:54.566Z,24.85
2022-12-18T22:39:23.989Z,25.15
2022-12-18T22:41:52.174Z,25.52
2022-12-18T22:44:19.088Z,25.17
2022-12-18T22:47:00.637Z,25.42
2022-12-18T22:49:33.882Z,23.75
2022-12-18T22:52:01.941Z,25.02
2022-12-18T22:54:28.481Z,26.30
2022-12-18T22:56:55.510Z,26.70
2022-12-18T22:59:23.424Z,25.58
2022-12-18T23:01:52.919Z,26.52
2022-12-18T23:04:32.960Z,24.52
2022-12-18T23:07:05.277Z,25.17
2022-12-18T23:09:32.185Z,26.00
2022-12-18T23:11:59.008Z,24.38
2022-12-18T23:14:25.853Z,24.52
2022-12-18T23:16:53.176Z,25.10
2022-12-18T23:19:20.514Z,25.77
2022-12-18T23:21:47.447Z,26.95
2022-12-18T23:24:14.557Z,25.70
2022-12-18T23:26:41.521Z,26.77
2022-12-18T23:29:08.262Z,27.10
2022-12-18T23:31:38.503Z,24.13
2022-12-18T23:34:06.496Z,26.70
2022-12-18T23:36:35.242Z,24.83
2022-12-18T23:39:12.760Z,25.70
2022-12-18T23:41:50.566Z,24.58
2022-12-18T23:44:17.083Z,26.48
2022-12-18T23:46:43.643Z,26.20
2022-12-18T23:49:10.328Z,24.20
2022-12-18T23:51:36.817Z,24.63
2022-12-18T23:54:04.875Z,27.00
2022-12-18T23:56:31.642Z,26.25
2022-12-18T23:58:58.319Z,25.58
